Accueil
METAR-TAF:

METAR-TAF

Aéroports :

Aéroport de Milan-Linate

Milan, Italie

latitude: 45-26N, longitude: 009-17E, altitude: 107 m

Observation

Le bulletin a été fait il y a 31 minutes, à 22:50 UTC
Vent 6 kt de est
Température 7°C
Humidité 70%
Pression 1028 hPa
Visibilité 10 km ou plus
pas de nuages en-dessous de 1500 mètres et pas de cumulonimbus.

METAR: LIML 212250Z 08006KT CAVOK 07/02 Q1028 NOSIG

Heure: 00:21 (23:21 UTC)

Prévision

Le bulletin a été fait il y a 6 heures et 21 minutes, à 17:00 UTC
Prévision valable du 21 à 18 UTC au 22 à 18 UTC
Vent 5 kt de direction variable
Visibilité 10 km ou plus
pas de nuages en-dessous de 1500 mètres et pas de cumulonimbus.
Temporairement
du 22 à 02 UTC au 22 à 07 UTC
Visibilité: 4000 m
brume

TAF: LIML 211700Z 2118/2218 VRB05KT CAVOK TEMPO 2202/2207 4000 BR

Observations et prévisions météorologiques de plus de 4000 aéroports (messages METAR et TAF).

Les stations disponibles sont représentées par des disques jaunes et rouges sur la carte.

Passer la souris dessus pour voir le nom de la station.

Cliquer dessus pour voir les observations et prévisions météorologiques.

Pour changer de carte: cliquez sur les boutons verts avec une croix noire pour zoomer, sur le bouton vert avec un tiret pour effectuer un zoom arrière, ou sur les flèches vertes pour les cartes adjacentes.


METAR-TAF: